Time;durP1;ratioP1;P1;durP2;ratioP2;P2;SDS_P1;SDS_P2;PMS_P1;PMS_P2;Temp;Humidity;BMP_temperature;BMP_pressure;BME280_temperature;BME280_humidity;BME280_pressure;Samples;Min_cycle;Max_cycle;Signal;HPM_P1;HPM_P2
2022/09/05 00:02:16;;;;;;;3.58;2.90;;;16.70;99.90;;;;;;5111403;28;20668;-52
2022/09/05 00:04:52;;;;;;;3.33;2.88;;;16.70;99.90;;;;;;5111645;28;20216;-52
2022/09/05 00:07:28;;;;;;;2.63;2.42;;;16.70;99.90;;;;;;5111891;28;20264;-52
2022/09/05 00:10:26;;;;;;;2.75;2.50;;;16.70;99.90;;;;;;5111639;28;20744;-52
2022/09/05 00:13:09;;;;;;;2.67;2.47;;;16.70;99.90;;;;;;5111737;28;20257;-51
2022/09/05 00:15:53;;;;;;;3.13;2.85;;;16.60;99.90;;;;;;5112120;28;20231;-52
2022/09/05 00:18:36;;;;;;;2.80;2.38;;;16.70;99.90;;;;;;5111770;28;20204;-52
2022/09/05 00:21:41;;;;;;;2.92;2.63;;;16.70;99.90;;;;;;5111090;28;20310;-53
2022/09/05 00:24:51;;;;;;;4.80;2.58;;;16.60;99.90;;;;;;5110361;28;20294;-52
2022/09/05 00:27:50;;;;;;;3.25;2.80;;;16.60;99.90;;;;;;5109766;28;20687;-52
2022/09/05 00:30:19;;;;;;;3.30;2.90;;;16.60;99.90;;;;;;5084342;28;20207;-53
2022/09/05 00:33:27;;;;;;;3.75;2.60;;;16.60;99.90;;;;;;5109273;28;20287;-53
2022/09/05 00:36:19;;;;;;;2.50;2.30;;;16.60;99.90;;;;;;5111662;28;20820;-52
2022/09/05 00:38:58;;;;;;;3.03;2.72;;;16.50;99.90;;;;;;5111137;28;20200;-52
2022/09/05 00:41:29;;;;;;;2.60;2.40;;;16.50;99.90;;;;;;5110782;28;20631;-52
2022/09/05 00:44:02;;;;;;;2.80;2.60;;;16.50;99.90;;;;;;5111352;28;20298;-52
2022/09/05 00:46:36;;;;;;;3.25;2.80;;;16.40;99.90;;;;;;5106401;28;20276;-51
2022/09/05 00:49:17;;;;;;;2.97;2.70;;;16.40;99.90;;;;;;5102670;28;20295;-53
2022/09/05 00:51:53;;;;;;;3.42;2.67;;;16.40;99.90;;;;;;5110635;28;20211;-52
2022/09/05 00:55:10;;;;;;;2.60;2.40;;;16.40;99.90;;;;;;5111103;28;20698;-52
2022/09/05 00:57:58;;;;;;;7.22;2.78;;;16.30;99.90;;;;;;5079010;28;20199;-53
2022/09/05 01:00:43;;;;;;;3.92;2.80;;;16.30;99.90;;;;;;5110713;28;20751;-52
2022/09/05 01:03:32;;;;;;;2.83;2.63;;;16.30;99.90;;;;;;5110655;28;20215;-52
2022/09/05 01:06:16;;;;;;;3.13;2.55;;;16.30;99.90;;;;;;5110455;28;20704;-52
2022/09/05 01:09:16;;;;;;;2.88;2.67;;;16.30;99.90;;;;;;5110512;28;20308;-52
2022/09/05 01:12:10;;;;;;;2.70;2.50;;;16.30;99.90;;;;;;5090251;28;20253;-53
2022/09/05 01:14:59;;;;;;;4.07;2.63;;;16.30;99.90;;;;;;5103066;28;20260;-51
2022/09/05 01:17:38;;;;;;;2.95;2.72;;;16.20;99.90;;;;;;5089531;28;20257;-52
2022/09/05 01:20:32;;;;;;;2.97;2.70;;;16.30;99.90;;;;;;5109338;28;20246;-52
2022/09/05 01:23:41;;;;;;;3.30;2.70;;;16.30;99.90;;;;;;5084342;28;20219;-52
2022/09/05 01:26:31;;;;;;;2.83;2.63;;;16.20;99.90;;;;;;5087396;28;20262;-52
2022/09/05 01:29:05;;;;;;;7.97;3.00;;;16.10;99.90;;;;;;5099336;28;20250;-54
2022/09/05 01:32:00;;;;;;;3.20;2.90;;;16.20;99.90;;;;;;5100240;28;20203;-52
2022/09/05 01:34:48;;;;;;;3.13;2.70;;;16.10;99.90;;;;;;5107203;28;20284;-53
2022/09/05 01:37:21;;;;;;;4.28;2.75;;;16.10;99.90;;;;;;5110155;28;20245;-52
2022/09/05 01:40:13;;;;;;;6.50;2.85;;;16.10;99.90;;;;;;5110028;28;20951;-52
2022/09/05 01:42:59;;;;;;;3.40;2.60;;;16.10;99.90;;;;;;5109862;28;20203;-51
2022/09/05 01:45:45;;;;;;;2.83;2.42;;;16.10;99.90;;;;;;5110146;28;20227;-52
2022/09/05 01:48:30;;;;;;;2.72;2.53;;;16.10;99.90;;;;;;5103875;28;20219;-51
2022/09/05 01:51:13;;;;;;;3.47;2.60;;;16.00;99.90;;;;;;5110225;28;20246;-52
2022/09/05 01:54:07;;;;;;;3.08;2.75;;;16.00;99.90;;;;;;5109955;28;20233;-52
2022/09/05 01:57:03;;;;;;;2.83;2.63;;;16.00;99.90;;;;;;5107930;28;20364;-52
2022/09/05 01:59:41;;;;;;;4.07;2.75;;;16.00;99.90;;;;;;5089880;28;20253;-52
2022/09/05 02:02:43;;;;;;;2.60;2.38;;;15.90;99.90;;;;;;5100366;28;20218;-52
2022/09/05 02:05:49;;;;;;;3.72;2.53;;;15.90;99.90;;;;;;5091458;28;20650;-52
2022/09/05 02:08:38;;;;;;;3.50;2.30;;;15.90;99.90;;;;;;5077736;28;20571;-53
2022/09/05 02:11:10;;;;;;;2.83;2.50;;;15.90;99.90;;;;;;5086693;28;20665;-52
2022/09/05 02:13:57;;;;;;;2.60;2.40;;;15.90;99.90;;;;;;5076474;28;20234;-52
2022/09/05 02:16:33;;;;;;;2.78;2.58;;;15.80;99.90;;;;;;5069289;28;20758;-50
2022/09/05 02:19:13;;;;;;;3.78;2.30;;;15.70;99.90;;;;;;5085841;28;20994;-52
2022/09/05 02:21:49;;;;;;;2.97;2.67;;;15.70;99.90;;;;;;5089441;28;20747;-52
2022/09/05 02:24:35;;;;;;;3.03;2.70;;;15.70;99.90;;;;;;5088273;28;20254;-53
2022/09/05 02:27:18;;;;;;;2.72;2.53;;;15.70;99.90;;;;;;5085907;28;20311;-52
2022/09/05 02:30:10;;;;;;;2.90;2.40;;;15.70;99.90;;;;;;5083346;28;20211;-52
2022/09/05 02:32:44;;;;;;;2.97;2.60;;;15.60;99.90;;;;;;5093173;28;20199;-52
2022/09/05 02:35:22;;;;;;;3.70;2.80;;;15.60;99.90;;;;;;5092994;28;20720;-52
2022/09/05 02:37:54;;;;;;;2.63;2.42;;;15.60;99.90;;;;;;5092839;28;20249;-52
2022/09/05 02:40:46;;;;;;;3.50;2.38;;;15.60;99.90;;;;;;5093180;28;20295;-52
2022/09/05 02:43:42;;;;;;;2.83;2.38;;;15.50;99.90;;;;;;5080851;28;20296;-52
2022/09/05 02:46:38;;;;;;;3.30;2.63;;;15.50;99.90;;;;;;5093137;28;20316;-52
2022/09/05 02:49:12;;;;;;;2.50;2.30;;;15.50;99.90;;;;;;5092726;28;20709;-52
2022/09/05 02:52:05;;;;;;;3.25;2.70;;;15.50;99.90;;;;;;5092897;28;20296;-52
2022/09/05 02:54:55;;;;;;;2.80;2.50;;;15.50;99.90;;;;;;5092137;28;20675;-52
2022/09/05 02:57:49;;;;;;;2.77;2.30;;;15.50;99.90;;;;;;5092422;28;20353;-52
2022/09/05 03:00:41;;;;;;;2.85;2.65;;;15.50;99.90;;;;;;5092304;28;20291;-52
2022/09/05 03:03:19;;;;;;;3.70;2.63;;;15.50;99.90;;;;;;5092480;28;20234;-52
2022/09/05 03:05:56;;;;;;;4.68;2.70;;;15.40;99.90;;;;;;5092017;28;20269;-52
2022/09/05 03:08:43;;;;;;;4.20;2.50;;;15.40;99.90;;;;;;5092051;28;20662;-52
2022/09/05 03:11:44;;;;;;;2.57;2.37;;;15.40;99.90;;;;;;5092079;28;20204;-52
2022/09/05 03:14:42;;;;;;;2.50;2.30;;;15.30;99.90;;;;;;5084460;28;20226;-52
2022/09/05 03:17:44;;;;;;;4.03;2.70;;;15.30;99.90;;;;;;5077027;28;20228;-52
2022/09/05 03:20:50;;;;;;;3.00;2.70;;;15.30;99.90;;;;;;5090800;28;20207;-52
2022/09/05 03:23:43;;;;;;;2.67;2.47;;;15.30;99.90;;;;;;5069062;28;20204;-52
2022/09/05 03:26:37;;;;;;;2.77;2.43;;;15.30;99.90;;;;;;5078685;28;20231;-52
2022/09/05 03:29:58;;;;;;;2.70;2.50;;;15.20;99.90;;;;;;5091009;28;20345;-52
2022/09/05 03:33:11;;;;;;;3.43;2.67;;;15.20;99.90;;;;;;5090611;28;20253;-52
2022/09/05 03:36:12;;;;;;;2.67;2.47;;;15.20;99.90;;;;;;5086985;28;20281;-51
2022/09/05 03:39:22;;;;;;;3.57;2.70;;;15.20;99.90;;;;;;5091035;28;20622;-52
2022/09/05 03:42:16;;;;;;;4.00;3.00;;;15.20;99.90;;;;;;5081760;28;20204;-51
2022/09/05 03:44:58;;;;;;;3.40;2.90;;;15.20;99.90;;;;;;5090884;28;20264;-52
2022/09/05 03:47:57;;;;;;;3.87;3.07;;;15.20;99.90;;;;;;5090837;28;20208;-52
2022/09/05 03:50:43;;;;;;;6.87;2.80;;;15.10;99.90;;;;;;5089156;28;20664;-52
2022/09/05 03:53:50;;;;;;;3.23;2.90;;;15.10;99.90;;;;;;5088676;28;20287;-52
2022/09/05 03:57:13;;;;;;;3.80;2.80;;;15.10;99.90;;;;;;5089223;28;20228;-52
2022/09/05 04:00:10;;;;;;;3.37;3.07;;;15.10;99.90;;;;;;5090295;28;20291;-52
2022/09/05 04:02:46;;;;;;;3.50;3.03;;;15.00;99.90;;;;;;5089875;28;20261;-52
2022/09/05 04:05:38;;;;;;;4.10;3.20;;;15.00;99.90;;;;;;5089778;28;20228;-52
2022/09/05 04:08:40;;;;;;;3.87;3.20;;;15.00;99.90;;;;;;5089790;28;20234;-52
2022/09/05 04:11:15;;;;;;;3.83;3.40;;;15.00;99.90;;;;;;5092149;28;20249;-52
2022/09/05 04:13:51;;;;;;;3.00;2.73;;;15.00;99.90;;;;;;5071186;28;1095810;-51
2022/09/05 04:16:25;;;;;;;3.50;3.20;;;15.00;99.90;;;;;;5088820;28;20369;-52
2022/09/05 04:18:56;;;;;;;3.27;2.97;;;15.00;99.90;;;;;;5086395;28;20196;-51
2022/09/05 04:21:29;;;;;;;4.70;4.20;;;15.00;99.90;;;;;;5088789;28;20208;-52
2022/09/05 04:24:07;;;;;;;3.97;3.57;;;14.90;99.90;;;;;;5088472;28;20200;-52
2022/09/05 04:26:52;;;;;;;3.40;3.10;;;15.00;99.90;;;;;;5087535;28;20232;-52
2022/09/05 04:29:31;;;;;;;4.27;3.07;;;14.90;99.90;;;;;;5088299;28;20235;-52
2022/09/05 04:32:09;;;;;;;3.80;3.08;;;14.90;99.90;;;;;;5089400;28;20277;-52
2022/09/05 04:34:58;;;;;;;5.70;3.50;;;14.90;99.90;;;;;;5088491;28;20287;-52
2022/09/05 04:37:37;;;;;;;4.40;3.30;;;14.90;99.90;;;;;;5090267;28;20245;-52
2022/09/05 04:40:37;;;;;;;3.90;3.50;;;14.90;99.90;;;;;;5089581;28;20192;-53
2022/09/05 04:43:10;;;;;;;3.90;3.10;;;14.90;99.90;;;;;;5087956;28;20730;-52
2022/09/05 04:45:43;;;;;;;3.60;3.20;;;14.90;99.90;;;;;;5083762;28;21190;-52
2022/09/05 04:48:17;;;;;;;3.80;3.50;;;14.80;99.90;;;;;;5087830;28;20266;-52
2022/09/05 04:51:05;;;;;;;5.17;3.10;;;14.80;99.90;;;;;;5089706;28;20212;-52
2022/09/05 04:53:51;;;;;;;4.07;3.30;;;14.80;99.90;;;;;;5090357;28;20261;-52
2022/09/05 04:56:25;;;;;;;3.60;3.30;;;14.80;99.90;;;;;;5089227;28;20224;-52
2022/09/05 04:58:57;;;;;;;3.97;3.57;;;14.80;99.90;;;;;;5091213;28;20265;-51
2022/09/05 05:01:53;;;;;;;4.53;3.70;;;14.80;99.90;;;;;;5089722;28;20307;-52
2022/09/05 05:04:42;;;;;;;4.20;3.80;;;14.70;99.90;;;;;;5090004;28;20939;-52
2022/09/05 05:07:40;;;;;;;4.00;3.70;;;14.80;99.90;;;;;;5089740;28;20208;-52
2022/09/05 05:10:16;;;;;;;6.80;3.90;;;14.80;99.90;;;;;;5090388;28;20269;-53
2022/09/05 05:13:15;;;;;;;4.20;3.80;;;14.80;99.90;;;;;;5085949;28;20291;-52
2022/09/05 05:16:10;;;;;;;5.77;4.00;;;14.90;99.90;;;;;;5081956;28;20315;-52
2022/09/05 05:19:07;;;;;;;6.33;4.10;;;14.90;99.90;;;;;;5088488;28;20196;-53
2022/09/05 05:21:51;;;;;;;5.17;4.10;;;14.90;99.90;;;;;;5085750;28;20295;-52
2022/09/05 05:24:23;;;;;;;92.10;53.40;;;15.00;99.90;;;;;;5081725;28;20273;-52
2022/09/05 05:26:59;;;;;;;9.57;7.83;;;15.10;99.90;;;;;;5079594;28;20981;-52
2022/09/05 05:29:37;;;;;;;6.97;5.38;;;15.20;99.90;;;;;;5087063;28;20224;-52
2022/09/05 05:32:07;;;;;;;48.47;25.63;;;15.20;99.90;;;;;;5089305;28;20212;-51
2022/09/05 05:34:43;;;;;;;27.65;15.57;;;15.30;99.90;;;;;;5089045;28;20277;-52
2022/09/05 05:37:30;;;;;;;42.50;23.53;;;15.50;99.90;;;;;;5088919;28;20269;-51
2022/09/05 05:40:05;;;;;;;6.70;4.93;;;15.50;99.90;;;;;;5078663;28;20208;-52
2022/09/05 05:42:35;;;;;;;6.93;4.60;;;15.50;99.90;;;;;;5088908;28;20269;-53
2022/09/05 05:45:03;;;;;;;7.85;5.88;;;15.50;99.90;;;;;;5078599;28;20204;-53
2022/09/05 05:47:37;;;;;;;15.25;8.75;;;15.60;99.90;;;;;;5087495;28;20208;-52
2022/09/05 05:50:17;;;;;;;5.70;4.15;;;15.80;99.90;;;;;;5075662;28;20646;-52
2022/09/05 05:53:26;;;;;;;4.88;4.00;;;15.80;99.90;;;;;;5087520;28;20273;-52
2022/09/05 05:56:30;;;;;;;5.03;4.07;;;15.80;99.90;;;;;;5004427;28;20222;-52
2022/09/05 05:59:12;;;;;;;6.80;4.10;;;15.80;99.90;;;;;;4997250;28;20675;-52
2022/09/05 06:02:31;;;;;;;6.50;4.10;;;15.80;99.90;;;;;;5075589;28;20204;-53
2022/09/05 06:05:21;;;;;;;6.13;4.00;;;15.80;99.90;;;;;;5089005;28;20243;-52
2022/09/05 06:08:01;;;;;;;5.85;3.80;;;15.90;99.90;;;;;;5088929;28;20200;-52
2022/09/05 06:11:26;;;;;;;6.03;3.95;;;16.00;99.90;;;;;;5079763;28;20676;-52
2022/09/05 06:14:58;;;;;;;5.70;4.18;;;16.00;99.90;;;;;;4996582;28;20772;-52
2022/09/05 06:18:03;;;;;;;6.82;3.85;;;16.10;99.90;;;;;;5036195;28;20269;-52
2022/09/05 06:21:09;;;;;;;4.53;4.05;;;16.50;99.90;;;;;;5083953;28;20200;-52
2022/09/05 06:24:38;;;;;;;5.35;3.72;;;16.60;99.90;;;;;;5087690;28;20295;-52
2022/09/05 06:27:39;;;;;;;7.05;5.15;;;16.70;99.90;;;;;;5086793;28;20232;-52
2022/09/05 06:30:36;;;;;;;7.80;6.07;;;16.90;99.90;;;;;;5084066;28;20319;-52
2022/09/05 06:33:15;;;;;;;8.13;6.22;;;17.70;99.90;;;;;;5072734;28;20653;-52
2022/09/05 06:35:57;;;;;;;8.65;6.40;;;18.40;99.90;;;;;;5084333;28;20564;-52
2022/09/05 06:38:45;;;;;;;4.63;4.20;;;18.90;99.90;;;;;;5077798;28;20631;-52
2022/09/05 06:41:29;;;;;;;9.05;4.80;;;19.10;99.90;;;;;;5087218;28;20215;-53
2022/09/05 06:44:21;;;;;;;9.32;4.63;;;19.10;99.90;;;;;;5086106;28;20224;-52
2022/09/05 06:46:52;;;;;;;4.53;4.13;;;19.50;99.90;;;;;;5079954;28;20708;-52
2022/09/05 06:50:04;;;;;;;4.30;3.83;;;19.90;99.90;;;;;;5086702;28;20323;-52
2022/09/05 06:53:28;;;;;;;4.50;3.65;;;20.20;99.90;;;;;;5087960;28;20208;-52
2022/09/05 06:56:10;;;;;;;4.25;3.85;;;20.50;99.90;;;;;;5086087;28;20232;-52
2022/09/05 06:59:37;;;;;;;4.43;4.03;;;20.70;99.90;;;;;;5087325;28;20269;-52
2022/09/05 07:02:17;;;;;;;4.40;4.00;;;21.00;99.90;;;;;;5087553;28;20261;-52
2022/09/05 07:05:24;;;;;;;4.85;3.97;;;21.30;99.90;;;;;;5091037;28;20291;-53
2022/09/05 07:08:29;;;;;;;6.00;4.00;;;21.50;99.90;;;;;;5088519;28;20214;-53
2022/09/05 07:11:07;;;;;;;6.43;3.92;;;21.70;99.90;;;;;;5093698;28;20255;-52
2022/09/05 07:13:57;;;;;;;4.53;3.88;;;22.00;99.90;;;;;;5093524;28;20220;-53
2022/09/05 07:16:40;;;;;;;3.80;3.50;;;22.20;99.90;;;;;;5089325;28;20228;-53
2022/09/05 07:19:24;;;;;;;5.90;3.45;;;22.30;99.90;;;;;;5091041;28;20354;-52
2022/09/05 07:22:06;;;;;;;3.80;3.22;;;22.50;99.90;;;;;;5088310;28;20204;-52
2022/09/05 07:24:56;;;;;;;3.90;3.22;;;22.80;99.90;;;;;;5088014;28;20222;-53
2022/09/05 07:27:31;;;;;;;3.88;3.30;;;22.90;99.90;;;;;;5091357;28;20204;-53
2022/09/05 07:30:10;;;;;;;3.25;2.95;;;23.10;99.90;;;;;;5089816;28;20239;-53
2022/09/05 07:32:42;;;;;;;3.42;3.08;;;23.40;99.90;;;;;;5091012;28;20265;-53
2022/09/05 07:35:18;;;;;;;3.65;3.05;;;23.60;99.90;;;;;;5091121;28;20257;-52
2022/09/05 07:37:51;;;;;;;3.40;3.10;;;23.50;99.90;;;;;;5090289;28;20208;-50
2022/09/05 07:40:22;;;;;;;3.40;3.10;;;23.60;99.90;;;;;;5090956;28;20204;-50
2022/09/05 07:42:59;;;;;;;3.05;2.75;;;23.70;99.90;;;;;;5090415;28;20988;-50
2022/09/05 07:45:43;;;;;;;4.60;3.20;;;23.90;99.90;;;;;;5088922;28;20235;-49
2022/09/05 07:48:26;;;;;;;3.03;2.83;;;24.00;99.90;;;;;;5086604;28;20200;-50
2022/09/05 07:51:05;;;;;;;3.20;2.90;;;24.10;99.90;;;;;;5087647;28;20212;-50
2022/09/05 07:53:56;;;;;;;2.90;2.60;;;24.30;99.90;;;;;;5090809;28;20250;-50
2022/09/05 07:56:49;;;;;;;3.45;3.15;;;24.30;99.90;;;;;;5088784;28;20227;-52
2022/09/05 07:59:39;;;;;;;3.15;2.67;;;24.20;99.90;;;;;;5087947;28;20208;-53
2022/09/05 08:02:10;;;;;;;3.20;2.90;;;24.20;99.90;;;;;;5090242;28;20288;-52
2022/09/05 08:04:41;;;;;;;2.83;2.55;;;24.00;99.90;;;;;;5089580;28;20212;-53
2022/09/05 08:07:13;;;;;;;5.68;2.80;;;24.00;99.90;;;;;;5090337;28;20232;-52
2022/09/05 08:10:07;;;;;;;5.17;3.13;;;24.00;99.90;;;;;;5089189;28;20580;-52
2022/09/05 08:12:43;;;;;;;3.70;2.83;;;24.00;99.90;;;;;;5090483;28;20207;-52
2022/09/05 08:15:31;;;;;;;3.55;2.38;;;24.10;99.90;;;;;;5085676;28;20231;-52
2022/09/05 08:18:28;;;;;;;3.13;2.55;;;24.00;99.90;;;;;;5090813;28;20219;-52
2022/09/05 08:21:00;;;;;;;3.08;2.70;;;24.10;99.90;;;;;;5088469;28;20732;-52
2022/09/05 08:23:43;;;;;;;6.10;3.10;;;24.20;99.90;;;;;;5089295;28;20273;-53
2022/09/05 08:26:14;;;;;;;2.72;2.53;;;24.30;99.90;;;;;;5085709;28;20877;-53
2022/09/05 08:28:56;;;;;;;2.83;2.30;;;24.40;99.90;;;;;;5088454;28;20266;-52
2022/09/05 08:31:34;;;;;;;3.33;2.65;;;24.40;99.90;;;;;;5088542;28;20216;-53
2022/09/05 08:34:14;;;;;;;3.83;2.50;;;24.40;99.90;;;;;;5088483;28;20600;-52
2022/09/05 08:36:45;;;;;;;3.08;2.22;;;24.50;99.90;;;;;;5088257;28;20281;-53
2022/09/05 08:39:18;;;;;;;3.42;2.65;;;24.60;99.90;;;;;;5088582;28;20642;-52
2022/09/05 08:42:08;;;;;;;3.08;2.60;;;24.70;99.90;;;;;;5088301;28;20196;-52
2022/09/05 08:44:41;;;;;;;5.47;2.40;;;24.70;99.90;;;;;;5089603;28;20218;-53
2022/09/05 08:47:38;;;;;;;3.95;2.20;;;24.80;99.90;;;;;;5089984;28;20300;-52
2022/09/05 08:50:35;;;;;;;2.38;1.95;;;24.90;99.90;;;;;;5085068;28;20219;-53
2022/09/05 08:53:13;;;;;;;5.00;1.90;;;25.00;99.90;;;;;;5088619;28;20196;-53
2022/09/05 08:56:09;;;;;;;2.92;1.95;;;25.10;99.90;;;;;;5087327;28;20251;-52
2022/09/05 08:58:52;;;;;;;3.30;2.00;;;25.00;99.90;;;;;;5090267;28;20211;-52
2022/09/05 09:01:50;;;;;;;3.53;2.10;;;25.10;99.90;;;;;;5089724;28;20350;-53
2022/09/05 09:04:41;;;;;;;2.10;1.67;;;25.20;99.90;;;;;;5092629;28;20294;-52
2022/09/05 09:07:34;;;;;;;2.72;1.98;;;25.30;99.90;;;;;;5088052;28;20200;-52
2022/09/05 09:10:40;;;;;;;2.05;1.85;;;25.30;99.90;;;;;;5089282;28;20291;-53
2022/09/05 09:13:22;;;;;;;2.95;2.00;;;25.40;99.90;;;;;;5088648;28;20207;-52
2022/09/05 09:16:03;;;;;;;3.38;2.15;;;25.50;99.90;;;;;;5085817;28;20228;-52
2022/09/05 09:18:43;;;;;;;2.30;2.10;;;25.50;99.90;;;;;;5081692;28;20661;-51
2022/09/05 09:21:28;;;;;;;2.22;2.03;;;25.70;99.90;;;;;;5087196;28;20204;-51
2022/09/05 09:24:09;;;;;;;2.67;1.85;;;25.70;99.90;;;;;;5089009;28;20255;-51
2022/09/05 09:26:47;;;;;;;2.78;1.77;;;25.70;99.90;;;;;;5088309;28;20232;-50
2022/09/05 09:29:18;;;;;;;2.88;1.83;;;25.80;99.90;;;;;;5089300;28;20985;-51
2022/09/05 09:31:59;;;;;;;2.70;1.92;;;25.80;99.90;;;;;;5088182;28;20234;-51
2022/09/05 09:34:47;;;;;;;2.25;2.05;;;25.80;99.90;;;;;;5083997;28;20612;-49
2022/09/05 09:37:33;;;;;;;2.13;1.92;;;25.90;99.90;;;;;;5087445;28;20256;-51
2022/09/05 09:40:52;;;;;;;1.92;1.70;;;26.00;99.90;;;;;;5085767;28;20663;-50
2022/09/05 09:43:48;;;;;;;2.03;1.75;;;26.10;99.90;;;;;;5087661;28;20262;-50
2022/09/05 09:46:33;;;;;;;2.42;1.90;;;26.10;99.90;;;;;;5088781;28;20253;-51
2022/09/05 09:49:33;;;;;;;1.98;1.63;;;26.00;99.90;;;;;;5088463;28;20291;-50
2022/09/05 09:52:32;;;;;;;3.42;1.70;;;26.10;99.90;;;;;;5083773;28;20227;-51
2022/09/05 09:55:52;;;;;;;1.90;1.80;;;26.30;99.90;;;;;;5086648;28;20200;-50
2022/09/05 09:58:58;;;;;;;2.03;1.55;;;26.30;99.90;;;;;;5085530;28;20741;-50
2022/09/05 10:01:35;;;;;;;3.25;1.90;;;26.50;99.90;;;;;;5088097;28;20272;-51
2022/09/05 10:04:38;;;;;;;5.28;1.73;;;26.50;99.90;;;;;;5088298;28;20603;-51
2022/09/05 10:07:59;;;;;;;4.00;1.90;;;26.60;99.90;;;;;;5085736;28;20310;-50
2022/09/05 10:11:20;;;;;;;2.28;1.73;;;26.70;99.90;;;;;;5068658;28;20208;-51
2022/09/05 10:14:47;;;;;;;1.67;1.50;;;26.70;99.90;;;;;;5048251;28;20758;-52
2022/09/05 10:17:38;;;;;;;2.17;1.80;;;26.80;99.90;;;;;;5084457;28;20703;-51
2022/09/05 10:20:51;;;;;;;1.80;1.70;;;26.80;99.90;;;;;;5088253;28;20258;-50
2022/09/05 10:24:12;;;;;;;2.33;1.70;;;26.90;99.90;;;;;;5085474;28;20290;-51
2022/09/05 10:27:33;;;;;;;1.92;1.70;;;26.90;99.90;;;;;;5087980;28;20277;-50
2022/09/05 10:30:11;;;;;;;3.10;1.85;;;27.00;99.90;;;;;;5084844;28;20211;-51
2022/09/05 10:32:43;;;;;;;1.90;1.70;;;27.00;99.90;;;;;;5087472;28;20220;-51
2022/09/05 10:35:35;;;;;;;3.85;1.80;;;27.10;99.90;;;;;;5086951;28;20239;-51
2022/09/05 10:38:11;;;;;;;3.38;1.90;;;27.20;99.90;;;;;;5083830;28;20206;-50
2022/09/05 10:40:45;;;;;;;4.43;1.80;;;27.40;99.90;;;;;;5085921;28;20211;-50
2022/09/05 10:43:41;;;;;;;3.83;1.90;;;27.30;99.90;;;;;;5087059;28;20208;-50
2022/09/05 10:46:24;;;;;;;2.30;1.83;;;27.30;99.90;;;;;;5092736;28;20273;-51
2022/09/05 10:49:14;;;;;;;2.75;2.00;;;27.20;99.90;;;;;;5088018;28;20208;-51
2022/09/05 10:51:50;;;;;;;5.68;2.10;;;27.00;99.90;;;;;;5089235;28;20263;-50
2022/09/05 10:54:39;;;;;;;2.10;1.90;;;26.90;99.90;;;;;;5087365;28;20779;-51
2022/09/05 10:57:26;;;;;;;2.42;2.00;;;26.70;99.90;;;;;;5091012;28;20236;-50
2022/09/05 11:00:06;;;;;;;3.75;1.95;;;26.80;99.90;;;;;;5090256;28;20207;-50
2022/09/05 11:02:59;;;;;;;2.08;1.73;;;26.80;99.90;;;;;;5089240;28;20655;-50
2022/09/05 11:05:30;;;;;;;2.85;1.98;;;26.70;99.90;;;;;;5089853;28;20713;-51
2022/09/05 11:08:07;;;;;;;2.85;1.83;;;26.70;99.90;;;;;;5091388;28;20294;-51
2022/09/05 11:10:42;;;;;;;4.30;1.98;;;26.80;99.90;;;;;;5091059;28;20293;-51
2022/09/05 11:13:34;;;;;;;2.97;2.00;;;26.80;99.90;;;;;;5096084;28;20216;-50
2022/09/05 11:16:14;;;;;;;5.20;2.25;;;26.70;99.90;;;;;;5093211;28;20619;-50
2022/09/05 11:18:55;;;;;;;2.33;2.00;;;26.70;99.90;;;;;;5093687;28;20214;-50
2022/09/05 11:21:49;;;;;;;3.67;1.98;;;26.70;99.90;;;;;;5090682;28;20201;-51
2022/09/05 11:24:43;;;;;;;2.28;1.77;;;26.90;99.90;;;;;;5089065;28;20291;-50
2022/09/05 11:27:21;;;;;;;2.30;2.00;;;27.20;99.90;;;;;;5090650;28;20269;-50
2022/09/05 11:29:58;;;;;;;2.40;2.03;;;27.50;99.90;;;;;;5090192;28;20254;-50
2022/09/05 11:32:55;;;;;;;1.67;1.58;;;27.70;99.60;;;;;;5084055;28;20253;-51
2022/09/05 11:35:48;;;;;;;2.13;1.85;;;27.80;98.60;;;;;;5088929;28;20310;-50
2022/09/05 11:39:02;;;;;;;3.00;1.80;;;27.80;99.10;;;;;;5089391;28;20562;-51
2022/09/05 11:42:32;;;;;;;1.90;1.65;;;28.00;98.90;;;;;;5082158;28;20664;-50
2022/09/05 11:45:40;;;;;;;3.15;1.70;;;28.20;99.10;;;;;;5045288;28;20265;-51
2022/09/05 11:48:32;;;;;;;3.55;2.00;;;28.40;98.00;;;;;;5047531;28;20253;-50
2022/09/05 11:51:37;;;;;;;2.45;1.80;;;28.20;97.50;;;;;;5090611;28;20253;-51
2022/09/05 11:54:54;;;;;;;3.22;1.75;;;28.30;97.60;;;;;;5087487;28;20219;-52
2022/09/05 11:57:38;;;;;;;3.42;1.92;;;28.40;96.50;;;;;;5076432;28;20843;-51
2022/09/05 12:00:18;;;;;;;2.78;1.60;;;28.20;96.60;;;;;;5075345;28;20246;-50
2022/09/05 12:03:37;;;;;;;3.17;2.10;;;28.10;96.80;;;;;;5088789;28;20192;-51
2022/09/05 12:06:55;;;;;;;2.72;1.58;;;28.20;97.00;;;;;;5087077;28;20234;-51
2022/09/05 12:09:33;;;;;;;4.45;1.77;;;28.10;96.30;;;;;;5082801;28;20200;-52
2022/09/05 12:12:13;;;;;;;4.60;1.85;;;28.30;96.40;;;;;;5087701;28;20277;-52
2022/09/05 12:15:23;;;;;;;2.10;1.90;;;28.30;95.90;;;;;;5089031;28;20220;-52
2022/09/05 12:18:03;;;;;;;2.60;1.90;;;28.20;96.10;;;;;;5089243;28;20212;-51
2022/09/05 12:20:56;;;;;;;2.45;1.90;;;28.00;96.00;;;;;;5095243;28;20204;-52
2022/09/05 12:23:32;;;;;;;1.90;1.80;;;27.70;95.80;;;;;;5090828;28;20253;-51
2022/09/05 12:26:25;;;;;;;2.35;1.88;;;27.50;96.00;;;;;;5090539;28;20815;-51
2022/09/05 12:29:18;;;;;;;1.75;1.65;;;27.40;96.50;;;;;;5091702;28;20292;-51
2022/09/05 12:32:06;;;;;;;3.28;1.70;;;27.30;96.50;;;;;;5092484;28;20731;-51
2022/09/05 12:34:57;;;;;;;2.35;2.08;;;27.30;97.00;;;;;;5089083;28;20287;-51
2022/09/05 12:37:52;;;;;;;2.45;2.00;;;27.30;97.10;;;;;;5084942;28;20208;-51
2022/09/05 12:40:49;;;;;;;3.08;1.90;;;27.30;96.70;;;;;;5088730;28;20218;-51
2022/09/05 12:43:44;;;;;;;1.90;1.70;;;27.30;98.10;;;;;;5086650;28;20317;-52
2022/09/05 12:46:44;;;;;;;3.08;1.88;;;27.60;97.10;;;;;;5087272;28;20416;-51
2022/09/05 12:49:28;;;;;;;1.90;1.80;;;27.70;96.60;;;;;;5090222;28;20701;-51
2022/09/05 12:52:05;;;;;;;3.05;1.83;;;27.80;96.30;;;;;;5085636;28;20277;-51
2022/09/05 12:54:42;;;;;;;3.58;1.92;;;27.80;95.90;;;;;;5087398;28;20224;-50
2022/09/05 12:57:26;;;;;;;2.70;1.63;;;27.80;95.40;;;;;;5088353;28;20714;-52
2022/09/05 13:00:20;;;;;;;4.40;1.95;;;28.00;95.50;;;;;;5086173;28;20299;-51
2022/09/05 13:03:16;;;;;;;2.97;1.60;;;28.10;95.50;;;;;;5086607;28;20229;-51
2022/09/05 13:06:05;;;;;;;3.30;1.88;;;28.30;95.00;;;;;;5085035;28;20228;-51
2022/09/05 13:08:46;;;;;;;4.15;2.10;;;28.20;95.10;;;;;;5086701;28;20204;-51
2022/09/05 13:11:29;;;;;;;2.85;1.75;;;28.30;94.40;;;;;;5088024;28;20212;-51
2022/09/05 13:14:23;;;;;;;2.08;1.75;;;28.40;94.70;;;;;;5086979;28;20220;-50
2022/09/05 13:17:13;;;;;;;3.72;1.88;;;28.40;93.50;;;;;;5084509;28;20780;-51
2022/09/05 13:19:49;;;;;;;2.42;1.50;;;28.60;94.10;;;;;;5084109;28;20270;-52
2022/09/05 13:22:22;;;;;;;2.08;1.77;;;28.60;93.00;;;;;;5085840;28;20689;-51
2022/09/05 13:24:58;;;;;;;3.63;2.00;;;28.50;92.90;;;;;;5087732;28;20196;-49
2022/09/05 13:27:33;;;;;;;2.45;1.85;;;28.60;93.70;;;;;;5086245;28;20195;-51
2022/09/05 13:30:09;;;;;;;1.90;1.67;;;28.70;93.20;;;;;;5084398;28;20298;-51
2022/09/05 13:33:02;;;;;;;4.85;2.10;;;28.70;92.40;;;;;;5086722;28;20648;-51
2022/09/05 13:36:02;;;;;;;2.63;1.80;;;28.70;92.60;;;;;;5085089;28;20263;-51
2022/09/05 13:38:59;;;;;;;2.28;1.80;;;28.80;92.40;;;;;;5087532;28;20244;-51
2022/09/05 13:41:30;;;;;;;4.38;1.98;;;28.90;92.30;;;;;;5084632;28;20714;-51
2022/09/05 13:43:59;;;;;;;2.47;1.88;;;28.80;91.50;;;;;;5082271;28;20207;-51
2022/09/05 13:46:55;;;;;;;3.28;1.80;;;28.70;91.90;;;;;;5086081;28;20321;-52
2022/09/05 13:49:31;;;;;;;2.53;2.03;;;28.60;91.30;;;;;;5087812;28;20200;-50
2022/09/05 13:52:27;;;;;;;2.20;1.52;;;28.60;91.80;;;;;;5085971;28;20290;-51
2022/09/05 13:55:06;;;;;;;2.90;2.08;;;28.70;92.70;;;;;;5087289;28;20227;-51
2022/09/05 13:57:39;;;;;;;1.92;1.70;;;28.90;92.20;;;;;;5085650;28;20201;-51
2022/09/05 14:00:42;;;;;;;2.25;1.90;;;28.80;91.50;;;;;;5078583;28;20226;-51
2022/09/05 14:03:46;;;;;;;3.22;1.80;;;28.80;91.30;;;;;;5083589;28;20203;-51
2022/09/05 14:06:47;;;;;;;2.85;1.65;;;28.80;91.00;;;;;;5082781;28;20310;-50
2022/09/05 14:09:32;;;;;;;3.03;1.70;;;28.70;90.00;;;;;;5077745;28;21005;-51
2022/09/05 14:12:14;;;;;;;3.30;1.52;;;28.70;90.00;;;;;;5084856;28;20228;-51
2022/09/05 14:14:48;;;;;;;3.75;1.98;;;28.80;89.10;;;;;;5086295;28;20865;-51
2022/09/05 14:17:53;;;;;;;2.90;1.77;;;28.90;89.80;;;;;;5086013;28;20294;-51
2022/09/05 14:23:18;;;;;;;7.63;2.40;;;28.90;88.30;;;;;;5087183;28;20299;-51
2022/09/05 14:25:50;;;;;;;1.90;1.80;;;29.00;87.40;;;;;;5091216;28;20236;-50
2022/09/05 14:28:25;;;;;;;2.80;1.77;;;29.10;88.10;;;;;;5090940;28;20206;-50
2022/09/05 14:30:55;;;;;;;2.20;2.00;;;29.10;88.00;;;;;;5091409;28;20203;-51
2022/09/05 14:34:09;;;;;;;3.38;2.33;;;29.00;87.10;;;;;;5087474;28;20266;-51
2022/09/05 14:37:06;;;;;;;2.65;1.63;;;28.90;88.30;;;;;;5090186;28;20665;-51
2022/09/05 14:40:20;;;;;;;2.05;1.80;;;28.90;85.40;;;;;;5086187;28;20291;-51